Time;durP1;ratioP1;P1;durP2;ratioP2;P2;SDS_P1;SDS_P2;PMS_P1;PMS_P2;Temp;Humidity;BMP_temperature;BMP_pressure;BME280_temperature;BME280_humidity;BME280_pressure;Samples;Min_cycle;Max_cycle;Signal;HPM_P1;HPM_P2
2022/10/20 00:01:16;;;;;;;5.30;2.30;;;8.00;85.90;;;;;;5039600;28;20032;-44
2022/10/20 00:03:44;;;;;;;5.30;1.40;;;8.00;86.10;;;;;;5039601;28;20040;-46
2022/10/20 00:06:23;;;;;;;4.28;1.90;;;8.00;86.40;;;;;;5055811;28;20298;-49
2022/10/20 00:08:51;;;;;;;4.15;1.90;;;8.00;86.00;;;;;;5056926;28;20043;-50
2022/10/20 00:11:19;;;;;;;4.18;1.75;;;8.00;86.30;;;;;;5056226;28;20119;-46
2022/10/20 00:13:48;;;;;;;4.22;1.85;;;8.00;86.50;;;;;;5055073;28;20029;-48
2022/10/20 00:16:14;;;;;;;3.85;2.13;;;7.90;86.20;;;;;;5056839;28;20120;-47
2022/10/20 00:18:43;;;;;;;6.10;2.00;;;7.90;86.50;;;;;;5055963;28;20047;-45
2022/10/20 00:21:15;;;;;;;6.20;2.25;;;7.90;86.40;;;;;;5036829;28;20028;-45
2022/10/20 00:23:41;;;;;;;3.40;2.05;;;7.90;86.70;;;;;;5038710;28;20108;-47
2022/10/20 00:26:14;;;;;;;5.10;2.38;;;7.90;86.70;;;;;;5056676;28;20463;-45
2022/10/20 00:28:46;;;;;;;8.95;2.20;;;7.90;86.70;;;;;;5054610;28;20033;-45
2022/10/20 00:31:12;;;;;;;3.95;1.80;;;7.90;86.60;;;;;;5056545;28;20025;-45
2022/10/20 00:33:41;;;;;;;5.82;2.38;;;7.90;86.70;;;;;;5039303;28;20501;-45
2022/10/20 00:36:13;;;;;;;3.93;2.13;;;7.90;86.90;;;;;;5055352;28;20040;-46
2022/10/20 00:38:41;;;;;;;4.40;3.17;;;7.90;87.00;;;;;;5056524;28;20374;-45
2022/10/20 00:41:09;;;;;;;6.80;2.00;;;7.90;86.80;;;;;;5054309;28;20116;-46
2022/10/20 00:43:46;;;;;;;5.22;1.90;;;7.90;86.60;;;;;;5055401;28;20036;-47
2022/10/20 00:46:17;;;;;;;5.82;2.25;;;7.90;86.60;;;;;;5051846;28;20045;-46
2022/10/20 00:48:47;;;;;;;5.45;2.10;;;7.80;86.80;;;;;;5035576;28;20441;-47
2022/10/20 00:51:18;;;;;;;11.02;2.08;;;7.80;86.80;;;;;;5036400;28;20021;-47
2022/10/20 00:53:47;;;;;;;4.05;1.92;;;7.80;86.80;;;;;;5036299;28;20109;-46
2022/10/20 00:56:13;;;;;;;4.82;2.40;;;7.80;87.10;;;;;;5030126;28;20030;-45
2022/10/20 00:58:41;;;;;;;6.55;2.72;;;7.80;87.00;;;;;;5020176;28;20037;-44
2022/10/20 01:01:08;;;;;;;6.43;2.28;;;7.80;87.20;;;;;;5017567;28;20068;-47
2022/10/20 01:03:49;;;;;;;7.15;2.90;;;7.80;87.20;;;;;;5036087;28;20392;-44
2022/10/20 01:06:20;;;;;;;5.32;2.47;;;7.80;87.20;;;;;;5035082;28;20040;-45
2022/10/20 01:08:51;;;;;;;6.75;2.58;;;7.80;87.20;;;;;;5035112;28;20060;-47
2022/10/20 01:11:54;;;;;;;5.95;2.70;;;7.80;87.20;;;;;;5035103;28;20482;-46
2022/10/20 01:14:58;;;;;;;5.78;2.50;;;7.70;87.20;;;;;;5038818;28;20034;-50
2022/10/20 01:17:35;;;;;;;7.45;2.92;;;7.80;87.10;;;;;;5015968;28;20030;-45
2022/10/20 01:20:19;;;;;;;7.00;2.42;;;7.70;87.20;;;;;;5016041;28;20018;-45
2022/10/20 01:23:18;;;;;;;5.13;2.22;;;7.80;87.40;;;;;;5029509;28;20033;-44
2022/10/20 01:25:47;;;;;;;5.95;2.88;;;7.80;87.20;;;;;;5033516;28;20446;-45
2022/10/20 01:28:37;;;;;;;7.20;2.90;;;7.80;87.10;;;;;;5035563;28;20048;-47
2022/10/20 01:31:16;;;;;;;7.95;3.03;;;7.70;87.30;;;;;;5035662;28;20029;-48
2022/10/20 01:34:02;;;;;;;5.17;2.47;;;7.70;87.30;;;;;;5035777;28;20022;-44
2022/10/20 01:37:08;;;;;;;6.90;2.85;;;7.80;87.30;;;;;;5031359;28;20124;-46
2022/10/20 01:39:49;;;;;;;6.82;3.22;;;7.80;87.40;;;;;;4940187;28;20535;-44
2022/10/20 01:42:22;;;;;;;5.10;2.42;;;7.80;87.30;;;;;;4957366;28;20472;-44
2022/10/20 01:44:53;;;;;;;5.45;2.50;;;7.80;87.20;;;;;;4974759;28;20102;-48
2022/10/20 01:47:21;;;;;;;7.70;3.15;;;7.70;87.10;;;;;;4973458;28;20078;-47
2022/10/20 01:49:50;;;;;;;5.72;3.35;;;7.70;87.10;;;;;;4973499;28;20098;-46
2022/10/20 01:52:16;;;;;;;6.93;3.20;;;7.70;87.10;;;;;;4974566;28;20027;-49
2022/10/20 01:54:43;;;;;;;4.97;2.63;;;7.70;87.30;;;;;;4973487;28;20027;-45
2022/10/20 01:57:18;;;;;;;11.60;3.03;;;7.70;87.10;;;;;;4972849;28;20097;-48
2022/10/20 01:59:46;;;;;;;6.93;3.10;;;7.70;87.20;;;;;;4973252;28;20449;-45
2022/10/20 02:02:49;;;;;;;5.78;3.03;;;7.60;87.10;;;;;;4974151;28;20070;-47
2022/10/20 02:05:51;;;;;;;7.45;2.75;;;7.60;87.00;;;;;;4974034;28;20070;-44
2022/10/20 02:08:36;;;;;;;8.18;4.22;;;7.60;87.20;;;;;;4972545;28;20439;-46
2022/10/20 02:11:06;;;;;;;5.85;2.47;;;7.60;87.30;;;;;;4970749;28;20034;-45
2022/10/20 02:13:34;;;;;;;;;;;7.70;87.30;;;;;;4958534;28;20047;-47
2022/10/20 02:16:06;;;;;;;6.80;3.25;;;7.70;87.30;;;;;;5027404;28;20015;-47
2022/10/20 02:18:40;;;;;;;3.88;2.58;;;7.70;87.30;;;;;;5029840;28;20061;-49
2022/10/20 02:21:09;;;;;;;5.45;3.03;;;7.70;87.30;;;;;;5034101;28;20025;-44
2022/10/20 02:23:39;;;;;;;6.95;3.08;;;7.70;87.30;;;;;;5032896;28;20031;-45
2022/10/20 02:26:13;;;;;;;7.30;3.05;;;7.70;87.30;;;;;;5033271;28;20030;-45
2022/10/20 02:28:44;;;;;;;10.45;2.92;;;7.70;87.40;;;;;;5032797;28;20040;-46
2022/10/20 02:31:11;;;;;;;6.93;2.90;;;7.70;87.40;;;;;;5014741;28;20025;-45
2022/10/20 02:33:39;;;;;;;6.40;2.58;;;7.70;87.40;;;;;;4997538;28;20041;-45
2022/10/20 02:36:16;;;;;;;5.35;2.78;;;7.60;87.40;;;;;;5014751;28;20414;-45
2022/10/20 02:38:43;;;;;;;4.60;3.05;;;7.60;87.50;;;;;;5022390;28;20351;-46
2022/10/20 02:41:10;;;;;;;9.98;3.58;;;7.60;87.60;;;;;;5033558;28;20406;-44
2022/10/20 02:43:36;;;;;;;8.07;3.15;;;7.50;87.50;;;;;;5034043;28;20358;-44
2022/10/20 02:46:06;;;;;;;5.22;3.22;;;7.60;87.60;;;;;;5037472;28;20068;-45
2022/10/20 02:48:33;;;;;;;6.95;3.05;;;7.60;87.60;;;;;;5054155;28;20063;-44
2022/10/20 02:51:02;;;;;;;8.38;2.70;;;7.50;87.30;;;;;;5053250;28;20075;-44
2022/10/20 02:53:29;;;;;;;5.68;2.97;;;7.50;87.50;;;;;;5052674;28;20107;-47
2022/10/20 02:55:56;;;;;;;6.10;2.78;;;7.50;87.50;;;;;;5052629;28;20045;-47
2022/10/20 02:58:23;;;;;;;5.57;3.05;;;7.50;87.40;;;;;;5053825;28;20029;-45
2022/10/20 03:00:49;;;;;;;5.47;2.78;;;7.40;87.20;;;;;;5052336;28;20040;-44
2022/10/20 03:03:17;;;;;;;7.50;3.00;;;7.40;87.50;;;;;;5053615;28;20020;-46
2022/10/20 03:05:44;;;;;;;6.78;2.88;;;7.50;87.40;;;;;;5051933;28;20035;-44
2022/10/20 03:08:12;;;;;;;7.63;2.60;;;7.40;87.30;;;;;;5053179;28;20033;-47
2022/10/20 03:10:40;;;;;;;4.35;2.63;;;7.40;87.30;;;;;;5053833;28;20029;-44
2022/10/20 03:13:07;;;;;;;5.45;2.53;;;7.40;87.30;;;;;;5053822;28;20485;-44
2022/10/20 03:15:34;;;;;;;5.28;2.22;;;7.40;87.50;;;;;;5052295;28;20037;-44
2022/10/20 03:18:01;;;;;;;5.50;2.80;;;7.30;87.50;;;;;;5053379;28;20025;-44
2022/10/20 03:20:28;;;;;;;5.40;2.47;;;7.30;87.40;;;;;;5051555;28;20032;-44
2022/10/20 03:22:54;;;;;;;6.88;2.70;;;7.30;87.60;;;;;;5052936;28;20416;-45
2022/10/20 03:25:21;;;;;;;7.22;2.90;;;7.20;87.50;;;;;;5052376;28;20040;-48
2022/10/20 03:27:47;;;;;;;4.28;2.83;;;7.30;87.60;;;;;;5053251;28;20025;-44
2022/10/20 03:30:14;;;;;;;5.80;2.65;;;7.30;87.60;;;;;;5052407;28;20032;-47
2022/10/20 03:32:41;;;;;;;5.38;2.67;;;7.20;87.50;;;;;;5053206;28;20082;-44
2022/10/20 03:35:08;;;;;;;4.82;2.53;;;7.30;87.40;;;;;;5050491;28;20034;-47
2022/10/20 03:37:35;;;;;;;6.13;2.22;;;7.20;87.30;;;;;;5034835;28;20033;-46
2022/10/20 03:40:02;;;;;;;5.10;2.47;;;7.30;87.20;;;;;;5047828;28;20025;-43
2022/10/20 03:42:29;;;;;;;5.18;2.50;;;7.20;87.30;;;;;;5032403;28;20029;-44
2022/10/20 03:44:59;;;;;;;8.65;3.35;;;7.20;87.40;;;;;;5032398;28;20026;-43
2022/10/20 03:47:26;;;;;;;4.30;2.72;;;7.20;87.40;;;;;;4979908;28;20044;-48
2022/10/20 03:49:53;;;;;;;5.03;2.83;;;7.20;87.30;;;;;;5011871;28;20088;-46
2022/10/20 03:52:23;;;;;;;5.65;2.75;;;7.20;87.40;;;;;;5014697;28;20029;-49
2022/10/20 03:54:51;;;;;;;8.05;3.10;;;7.10;87.40;;;;;;5033283;28;20056;-45
2022/10/20 03:57:20;;;;;;;7.07;3.38;;;7.10;87.50;;;;;;5030818;28;20029;-48
2022/10/20 03:59:47;;;;;;;3.50;2.40;;;7.00;87.30;;;;;;5009977;28;20026;-44
2022/10/20 04:02:44;;;;;;;4.65;2.90;;;7.00;87.50;;;;;;5012548;28;20092;-44
2022/10/20 04:05:15;;;;;;;6.13;2.50;;;7.00;87.80;;;;;;5003729;28;20042;-43
2022/10/20 04:07:42;;;;;;;5.55;2.70;;;7.10;87.70;;;;;;5020853;28;20026;-46
2022/10/20 04:10:10;;;;;;;4.72;2.60;;;7.00;87.60;;;;;;5033005;28;20036;-47
2022/10/20 04:12:36;;;;;;;5.57;2.60;;;7.00;87.70;;;;;;5033069;28;20044;-44
2022/10/20 04:15:05;;;;;;;5.20;3.08;;;7.00;87.60;;;;;;5017372;28;20034;-46
2022/10/20 04:17:33;;;;;;;6.97;2.83;;;7.00;87.80;;;;;;4979171;28;20056;-44
2022/10/20 04:20:00;;;;;;;4.88;2.78;;;7.00;87.70;;;;;;5022504;28;20065;-45
2022/10/20 04:22:29;;;;;;;4.28;2.80;;;7.00;87.70;;;;;;5029441;28;20057;-45
2022/10/20 04:24:58;;;;;;;8.55;3.50;;;6.90;87.60;;;;;;5012357;28;20022;-45
2022/10/20 04:27:26;;;;;;;4.88;3.03;;;6.90;87.70;;;;;;5007198;28;20092;-45
2022/10/20 04:29:52;;;;;;;5.68;3.50;;;7.00;87.70;;;;;;5013054;28;20026;-44
2022/10/20 04:32:19;;;;;;;4.88;2.70;;;7.00;87.70;;;;;;4976300;28;20038;-45
2022/10/20 04:34:46;;;;;;;5.80;3.22;;;7.00;87.70;;;;;;5018362;28;20026;-44
2022/10/20 04:37:12;;;;;;;9.65;3.65;;;6.90;87.60;;;;;;5032724;28;20357;-44
2022/10/20 04:39:39;;;;;;;10.18;3.35;;;7.00;87.70;;;;;;5028510;28;20033;-44
2022/10/20 04:42:06;;;;;;;4.43;2.97;;;6.90;87.40;;;;;;5036339;28;20068;-44
2022/10/20 04:44:33;;;;;;;5.07;3.30;;;7.00;87.60;;;;;;5036478;28;20025;-48
2022/10/20 04:46:59;;;;;;;7.95;3.28;;;6.90;87.50;;;;;;5047381;28;20339;-48
2022/10/20 04:49:28;;;;;;;4.35;3.13;;;6.90;87.80;;;;;;5039142;28;20478;-46
2022/10/20 04:51:55;;;;;;;5.80;2.83;;;7.00;87.60;;;;;;5056374;28;20029;-46
2022/10/20 04:54:22;;;;;;;5.78;2.95;;;6.90;87.70;;;;;;5054705;28;20078;-47
2022/10/20 04:56:48;;;;;;;8.23;3.85;;;6.90;87.60;;;;;;5056043;28;20028;-44
2022/10/20 04:59:14;;;;;;;5.85;3.58;;;7.00;87.70;;;;;;5038177;28;20036;-46
2022/10/20 05:01:41;;;;;;;4.97;3.25;;;7.00;87.60;;;;;;5035746;28;20035;-45
2022/10/20 05:04:08;;;;;;;6.40;3.58;;;6.90;87.70;;;;;;5051627;28;20021;-46
2022/10/20 05:06:35;;;;;;;7.40;3.13;;;7.00;87.90;;;;;;5055792;28;20025;-47
2022/10/20 05:09:06;;;;;;;6.82;2.90;;;7.00;88.00;;;;;;5055452;28;20017;-45
2022/10/20 05:11:35;;;;;;;7.20;4.20;;;7.00;87.80;;;;;;5054805;28;20032;-45
2022/10/20 05:14:03;;;;;;;6.32;3.60;;;7.00;87.80;;;;;;5055740;28;20047;-45
2022/10/20 05:16:30;;;;;;;9.50;3.65;;;6.90;87.60;;;;;;5048627;28;20067;-45
2022/10/20 05:18:59;;;;;;;6.45;3.90;;;6.90;87.90;;;;;;5037456;28;20032;-46
2022/10/20 05:21:29;;;;;;;8.90;4.30;;;6.90;87.60;;;;;;5056017;28;20036;-45
2022/10/20 05:23:56;;;;;;;;;;;6.90;87.80;;;;;;5055073;28;20389;-43
2022/10/20 05:26:24;;;;;;;7.53;3.63;;;6.90;87.70;;;;;;5037888;28;19908;-44
2022/10/20 05:28:51;;;;;;;7.43;3.50;;;6.80;87.90;;;;;;5020624;28;20030;-48
2022/10/20 05:31:21;;;;;;;8.65;4.97;;;6.80;88.10;;;;;;5035628;28;20033;-44
2022/10/20 05:33:48;;;;;;;;;;;6.80;88.10;;;;;;5029680;28;20477;-43
2022/10/20 05:36:18;;;;;;;5.38;3.58;;;6.80;88.00;;;;;;5054142;28;19980;-47
2022/10/20 05:38:45;;;;;;;5.45;3.50;;;6.80;88.00;;;;;;5055423;28;20037;-44
2022/10/20 05:41:18;;;;;;;7.88;3.95;;;6.80;88.10;;;;;;5050944;28;20031;-47
2022/10/20 05:43:56;;;;;;;7.90;3.95;;;6.80;88.00;;;;;;5044201;28;20025;-44
2022/10/20 05:46:23;;;;;;;6.68;3.92;;;6.80;88.00;;;;;;5053765;28;20049;-47
2022/10/20 05:48:53;;;;;;;7.78;3.72;;;6.80;88.10;;;;;;5039186;28;20661;-43
2022/10/20 05:51:23;;;;;;;7.47;4.38;;;6.80;88.00;;;;;;5054921;28;20028;-45
2022/10/20 05:53:53;;;;;;;7.45;3.78;;;6.80;87.90;;;;;;5037629;28;20388;-46
2022/10/20 05:56:22;;;;;;;5.85;3.75;;;6.80;88.10;;;;;;5034669;28;20117;-44
2022/10/20 05:58:48;;;;;;;7.80;3.75;;;6.80;88.10;;;;;;5035282;28;20359;-44
2022/10/20 06:01:37;;;;;;;5.90;3.58;;;6.80;88.10;;;;;;5017171;28;20032;-44
2022/10/20 06:04:07;;;;;;;;;;;6.80;87.80;;;;;;5044611;28;20045;-44
2022/10/20 06:06:35;;;;;;;9.65;4.55;;;6.80;88.00;;;;;;5053309;28;20256;-44
2022/10/20 06:09:05;;;;;;;6.25;3.83;;;6.70;88.20;;;;;;5004304;28;20025;-44
2022/10/20 06:11:32;;;;;;;7.18;3.67;;;6.70;88.10;;;;;;5054551;28;20025;-47
2022/10/20 06:14:01;;;;;;;5.25;3.60;;;6.70;88.10;;;;;;5055365;28;20108;-44
2022/10/20 06:16:28;;;;;;;6.10;4.25;;;6.80;88.20;;;;;;5053521;28;20033;-44
2022/10/20 06:18:56;;;;;;;6.53;3.28;;;6.80;88.10;;;;;;5035803;28;20397;-46
2022/10/20 06:21:30;;;;;;;5.43;3.90;;;6.70;88.10;;;;;;5054450;28;20025;-43
2022/10/20 06:23:58;;;;;;;8.65;3.80;;;6.70;88.20;;;;;;5054620;28;20442;-45
2022/10/20 06:26:31;;;;;;;7.07;3.67;;;6.80;88.40;;;;;;5052384;28;20040;-43
2022/10/20 06:29:04;;;;;;;6.07;3.50;;;6.70;88.20;;;;;;5053451;28;20029;-45
2022/10/20 06:31:38;;;;;;;12.90;5.45;;;6.80;88.10;;;;;;5054423;28;20047;-45
2022/10/20 06:34:08;;;;;;;5.47;3.63;;;6.80;88.00;;;;;;5034877;28;20490;-44
2022/10/20 06:36:36;;;;;;;4.97;3.08;;;6.80;87.90;;;;;;5037243;28;20029;-43
2022/10/20 06:39:05;;;;;;;6.35;3.97;;;6.80;87.90;;;;;;5054366;28;20032;-44
2022/10/20 06:41:33;;;;;;;6.20;3.53;;;6.90;88.10;;;;;;5036665;28;20102;-44
2022/10/20 06:44:01;;;;;;;4.55;3.38;;;6.90;87.90;;;;;;5052832;28;20764;-44
2022/10/20 06:46:33;;;;;;;8.65;3.30;;;6.90;87.80;;;;;;5052798;28;20374;-44
2022/10/20 06:49:05;;;;;;;8.38;3.50;;;6.90;87.80;;;;;;5034318;28;20021;-46
2022/10/20 06:51:33;;;;;;;5.60;3.40;;;6.90;87.60;;;;;;5020114;28;20025;-44
2022/10/20 06:54:00;;;;;;;7.72;3.30;;;6.90;87.60;;;;;;5042949;28;20028;-45
2022/10/20 06:56:29;;;;;;;5.30;3.08;;;7.00;87.60;;;;;;5053721;28;20075;-44
2022/10/20 06:58:57;;;;;;;6.57;3.05;;;7.00;87.60;;;;;;5052813;28;20032;-44
2022/10/20 07:01:32;;;;;;;5.50;2.85;;;7.10;87.50;;;;;;5034938;28;20036;-47
2022/10/20 07:04:04;;;;;;;7.88;3.42;;;7.10;87.40;;;;;;5052008;28;20079;-44
2022/10/20 07:06:37;;;;;;;7.72;3.10;;;7.20;87.20;;;;;;5035510;28;20357;-45
2022/10/20 07:09:08;;;;;;;7.32;3.60;;;7.20;87.10;;;;;;5052161;28;20031;-45
2022/10/20 07:11:35;;;;;;;6.95;3.45;;;7.20;87.20;;;;;;5053252;28;20450;-44
2022/10/20 07:14:03;;;;;;;4.30;3.03;;;7.30;87.20;;;;;;5052046;28;20101;-47
2022/10/20 07:16:32;;;;;;;6.57;3.00;;;7.30;86.90;;;;;;5052740;28;20036;-48
2022/10/20 07:19:01;;;;;;;5.82;4.15;;;7.30;86.70;;;;;;5053433;28;20039;-47
2022/10/20 07:21:30;;;;;;;5.25;3.45;;;7.40;86.80;;;;;;5052581;28;20028;-47
2022/10/20 07:23:59;;;;;;;7.40;3.85;;;7.40;86.70;;;;;;5051699;28;20021;-47
2022/10/20 07:26:29;;;;;;;5.30;2.70;;;7.50;86.40;;;;;;5053349;28;20025;-46
2022/10/20 07:28:58;;;;;;;4.30;2.97;;;7.50;86.30;;;;;;5019405;28;20036;-44
2022/10/20 07:31:31;;;;;;;6.28;2.97;;;7.50;86.20;;;;;;5050969;28;20052;-47
2022/10/20 07:34:00;;;;;;;7.43;2.90;;;7.60;86.30;;;;;;5053454;28;20643;-46
2022/10/20 07:36:29;;;;;;;6.20;3.63;;;7.70;86.00;;;;;;5052259;28;20051;-45
2022/10/20 07:38:58;;;;;;;4.80;3.30;;;7.70;86.00;;;;;;5052208;28;20029;-46
2022/10/20 07:41:26;;;;;;;6.27;3.37;;;7.80;85.80;;;;;;5051990;28;20037;-44
2022/10/20 07:43:54;;;;;;;5.30;3.33;;;7.90;85.60;;;;;;5053352;28;20294;-48
2022/10/20 07:46:24;;;;;;;7.03;3.22;;;8.00;85.50;;;;;;5052120;28;20056;-46
2022/10/20 07:48:51;;;;;;;5.88;2.90;;;8.20;85.30;;;;;;5052928;28;20108;-45
2022/10/20 07:51:37;;;;;;;6.10;2.92;;;8.30;85.10;;;;;;5052051;28;20075;-47
2022/10/20 07:54:07;;;;;;;6.50;3.42;;;8.40;84.70;;;;;;5052532;28;20041;-49
2022/10/20 07:56:41;;;;;;;5.05;2.92;;;8.50;84.00;;;;;;5051680;28;20082;-44
2022/10/20 07:59:10;;;;;;;5.05;3.25;;;8.40;83.90;;;;;;5044498;28;20088;-45
2022/10/20 08:01:39;;;;;;;6.55;2.97;;;8.50;83.80;;;;;;5019671;28;20078;-48
2022/10/20 08:04:06;;;;;;;6.65;3.38;;;8.70;83.80;;;;;;5033314;28;20037;-47
2022/10/20 08:06:33;;;;;;;7.60;2.90;;;8.70;83.40;;;;;;5033752;28;20043;-49
2022/10/20 08:09:00;;;;;;;5.40;2.80;;;8.80;83.60;;;;;;5051376;28;20033;-46
2022/10/20 08:11:27;;;;;;;8.68;3.45;;;8.90;83.10;;;;;;5051153;28;20913;-46
2022/10/20 08:13:54;;;;;;;3.58;2.55;;;9.00;83.40;;;;;;5053166;28;20021;-46
2022/10/20 08:16:21;;;;;;;6.88;3.70;;;9.20;82.60;;;;;;5038167;28;20041;-46
2022/10/20 08:18:47;;;;;;;4.88;3.00;;;9.30;81.90;;;;;;5056787;28;20033;-50
2022/10/20 08:21:19;;;;;;;5.25;2.90;;;9.40;82.00;;;;;;5055713;28;20067;-47
2022/10/20 08:23:47;;;;;;;5.43;2.90;;;9.40;81.30;;;;;;5056760;28;20035;-45
2022/10/20 08:26:20;;;;;;;6.32;2.13;;;9.40;81.60;;;;;;5055997;28;20139;-47
2022/10/20 08:28:50;;;;;;;4.22;2.42;;;9.30;81.30;;;;;;5032999;28;20029;-45
2022/10/20 08:31:19;;;;;;;3.80;2.70;;;9.40;81.40;;;;;;5037169;28;20049;-47
2022/10/20 08:33:46;;;;;;;4.65;2.80;;;9.60;81.20;;;;;;5036864;28;20492;-50
2022/10/20 08:36:16;;;;;;;3.83;2.63;;;9.60;80.90;;;;;;5055344;28;20040;-45
2022/10/20 08:38:44;;;;;;;4.70;3.08;;;9.50;81.20;;;;;;5056497;28;20127;-47
2022/10/20 08:41:23;;;;;;;7.15;3.55;;;9.50;80.90;;;;;;5055618;28;20037;-47
2022/10/20 08:43:52;;;;;;;7.38;3.05;;;9.60;81.30;;;;;;5055304;28;20056;-46
2022/10/20 08:46:26;;;;;;;4.78;2.83;;;9.60;80.90;;;;;;5034808;28;20042;-44
2022/10/20 08:48:52;;;;;;;5.45;3.15;;;9.70;81.20;;;;;;5035518;28;20121;-47
2022/10/20 08:51:22;;;;;;;5.00;3.13;;;9.80;81.00;;;;;;5036576;28;20105;-46
2022/10/20 08:53:52;;;;;;;5.90;3.00;;;9.90;80.30;;;;;;5035111;28;20038;-45
2022/10/20 08:56:24;;;;;;;4.90;3.10;;;10.20;79.90;;;;;;5032824;28;20056;-45
2022/10/20 08:58:51;;;;;;;8.13;3.92;;;10.30;79.20;;;;;;5039725;28;20473;-46
2022/10/20 09:01:29;;;;;;;4.28;3.28;;;10.50;78.70;;;;;;5029528;28;20378;-47
2022/10/20 09:04:01;;;;;;;5.78;3.67;;;10.60;78.40;;;;;;5034209;28;20530;-45
2022/10/20 09:06:29;;;;;;;6.82;3.40;;;10.60;78.00;;;;;;5018351;28;20021;-46
2022/10/20 09:08:59;;;;;;;9.15;3.97;;;10.50;77.60;;;;;;5032371;28;20053;-46
2022/10/20 09:11:36;;;;;;;8.13;4.15;;;10.60;77.40;;;;;;5056079;28;20357;-46
2022/10/20 09:14:03;;;;;;;8.73;3.95;;;10.60;77.70;;;;;;5044435;28;20065;-45
2022/10/20 09:16:38;;;;;;;7.85;4.10;;;10.60;78.00;;;;;;5032174;28;20826;-45
2022/10/20 09:19:15;;;;;;;5.72;3.15;;;10.50;77.50;;;;;;5034155;28;20067;-47
2022/10/20 09:21:44;;;;;;;4.72;4.00;;;10.50;78.10;;;;;;5018115;28;20033;-45
2022/10/20 09:24:14;;;;;;;9.80;3.72;;;10.40;78.40;;;;;;5034373;28;20435;-47
2022/10/20 09:26:47;;;;;;;7.30;3.60;;;10.30;78.20;;;;;;5033984;28;20116;-48
2022/10/20 09:29:19;;;;;;;5.97;4.07;;;10.20;78.60;;;;;;5016986;28;20375;-45
2022/10/20 09:31:52;;;;;;;5.78;4.03;;;10.20;79.20;;;;;;5051203;28;20143;-45
2022/10/20 09:34:20;;;;;;;8.27;3.80;;;10.20;79.20;;;;;;5015689;28;20467;-45
2022/10/20 09:36:49;;;;;;;7.97;4.05;;;10.20;79.30;;;;;;5034585;28;20029;-47
2022/10/20 09:39:26;;;;;;;5.68;4.07;;;10.20;79.40;;;;;;5029866;28;20064;-44
2022/10/20 09:42:06;;;;;;;7.72;4.50;;;10.30;79.10;;;;;;5035500;28;20461;-48
2022/10/20 09:45:17;;;;;;;5.78;4.03;;;10.30;79.30;;;;;;5034844;28;20076;-46
2022/10/20 09:47:47;;;;;;;7.32;4.07;;;10.30;79.20;;;;;;5025010;28;20120;-45
2022/10/20 09:50:26;;;;;;;;;;;10.30;79.00;;;;;;5027175;28;20125;-48
2022/10/20 09:52:55;;;;;;;15.63;4.82;;;10.50;79.30;;;;;;5030804;28;19913;-45
2022/10/20 09:55:30;;;;;;;8.18;4.55;;;10.60;79.20;;;;;;5035076;28;20373;-44
2022/10/20 09:58:03;;;;;;;6.68;4.70;;;10.70;79.00;;;;;;5035414;28;20037;-47
2022/10/20 10:00:56;;;;;;;5.68;4.32;;;10.70;78.30;;;;;;5043891;28;20029;-46
2022/10/20 10:03:24;;;;;;;6.75;4.45;;;10.70;77.80;;;;;;5054170;28;20040;-46
2022/10/20 10:05:58;;;;;;;6.88;4.80;;;10.90;77.60;;;;;;5053552;28;20044;-45
2022/10/20 10:08:42;;;;;;;6.88;5.07;;;10.90;77.70;;;;;;5054823;28;20072;-44
2022/10/20 10:11:20;;;;;;;7.85;5.00;;;10.90;78.20;;;;;;5053593;28;20432;-46
2022/10/20 10:13:50;;;;;;;5.45;4.50;;;11.00;77.90;;;;;;5054739;28;20024;-47
2022/10/20 10:16:21;;;;;;;9.73;4.65;;;11.10;77.50;;;;;;5053807;28;20116;-45
2022/10/20 10:19:02;;;;;;;7.75;4.70;;;11.10;76.90;;;;;;5033891;28;20083;-45
2022/10/20 10:22:01;;;;;;;10.68;6.10;;;11.10;77.60;;;;;;5053692;28;20052;-47
2022/10/20 10:24:47;;;;;;;9.60;4.53;;;11.30;77.60;;;;;;5038642;28;20045;-47
2022/10/20 10:27:20;;;;;;;7.88;5.15;;;11.40;77.00;;;;;;5054526;28;20462;-47
2022/10/20 10:29:46;;;;;;;12.10;5.35;;;11.40;76.00;;;;;;5054429;28;20033;-45
2022/10/20 10:32:22;;;;;;;7.95;5.13;;;11.50;75.40;;;;;;5045767;28;20040;-46
2022/10/20 10:35:09;;;;;;;9.07;5.28;;;11.50;75.20;;;;;;5053165;28;20044;-44
2022/10/20 10:37:44;;;;;;;7.72;5.32;;;11.50;75.50;;;;;;5053521;28;20063;-46
2022/10/20 10:40:19;;;;;;;8.82;5.40;;;11.50;76.00;;;;;;5046050;28;20460;-47
2022/10/20 10:42:54;;;;;;;10.98;5.20;;;11.50;75.70;;;;;;5047140;28;20022;-45
2022/10/20 10:45:44;;;;;;;9.57;5.50;;;11.60;75.90;;;;;;5045979;28;20033;-45
2022/10/20 10:48:28;;;;;;;10.85;5.35;;;11.70;76.10;;;;;;5032368;28;20095;-44
2022/10/20 10:51:04;;;;;;;27.45;5.32;;;11.70;75.80;;;;;;5034279;28;20061;-46
2022/10/20 10:53:57;;;;;;;9.32;5.80;;;11.70;75.90;;;;;;5033622;28;20048;-45
2022/10/20 10:57:04;;;;;;;7.13;5.68;;;11.70;76.20;;;;;;5024176;28;20034;-46
2022/10/20 10:59:41;;;;;;;10.95;6.22;;;11.80;75.90;;;;;;4989685;28;20344;-46
2022/10/20 11:02:35;;;;;;;7.22;5.65;;;11.90;75.90;;;;;;5015406;28;20040;-45
2022/10/20 11:05:23;;;;;;;7.63;5.45;;;11.90;75.90;;;;;;5016501;28;20057;-45
2022/10/20 11:08:07;;;;;;;7.82;5.15;;;12.10;75.20;;;;;;5034037;28;20344;-45
2022/10/20 11:10:58;;;;;;;8.25;6.10;;;12.20;75.70;;;;;;5013095;28;20037;-48
2022/10/20 11:13:47;;;;;;;8.77;6.15;;;12.30;75.30;;;;;;5007923;28;20030;-47
2022/10/20 11:16:38;;;;;;;9.37;5.93;;;12.40;75.40;;;;;;5003737;28;20041;-48
2022/10/20 11:19:43;;;;;;;9.95;6.25;;;12.50;75.40;;;;;;5012898;28;20075;-48
2022/10/20 11:22:43;;;;;;;6.93;6.22;;;12.50;75.10;;;;;;5031270;28;20034;-45
2022/10/20 11:25:48;;;;;;;9.13;7.13;;;12.40;75.40;;;;;;5033485;28;20040;-49
2022/10/20 11:28:47;;;;;;;10.15;5.93;;;12.40;75.30;;;;;;5024147;28;20037;-46
2022/10/20 11:31:25;;;;;;;7.53;5.90;;;12.40;76.20;;;;;;5023710;28;20403;-48
2022/10/20 11:33:58;;;;;;;10.07;6.90;;;12.40;76.70;;;;;;5029694;28;20044;-48
2022/10/20 11:36:34;;;;;;;8.73;6.15;;;12.50;75.70;;;;;;5033251;28;20078;-50
2022/10/20 11:39:03;;;;;;;6.70;5.38;;;12.50;76.50;;;;;;5018187;28;20048;-46
2022/10/20 11:41:50;;;;;;;14.80;7.95;;;12.50;76.70;;;;;;5018759;28;20371;-47
2022/10/20 11:44:43;;;;;;;8.02;6.38;;;12.60;76.90;;;;;;5033210;28;20033;-46
2022/10/20 11:47:14;;;;;;;10.73;6.55;;;12.60;76.70;;;;;;4997180;28;20050;-46
2022/10/20 11:49:42;;;;;;;9.38;5.97;;;12.50;76.10;;;;;;5032585;28;20032;-46
2022/10/20 11:52:41;;;;;;;10.48;7.07;;;12.60;76.90;;;;;;5023131;28;20037;-45
2022/10/20 11:55:44;;;;;;;9.75;6.38;;;12.70;76.70;;;;;;5030507;28;20037;-46
2022/10/20 11:58:58;;;;;;;12.43;7.20;;;12.80;76.40;;;;;;5032380;28;20108;-48
2022/10/20 12:02:01;;;;;;;7.85;6.55;;;12.90;76.50;;;;;;5020665;28;20034;-48
2022/10/20 12:04:54;;;;;;;10.38;6.35;;;12.90;76.60;;;;;;5026869;28;20038;-51
2022/10/20 12:07:39;;;;;;;8.85;6.90;;;12.90;75.70;;;;;;5031502;28;20480;-46
2022/10/20 12:10:44;;;;;;;9.98;7.25;;;13.00;75.70;;;;;;5024889;28;20104;-48
2022/10/20 12:13:53;;;;;;;15.32;8.15;;;13.00;76.10;;;;;;5014453;28;20041;-51
2022/10/20 12:17:06;;;;;;;10.30;6.85;;;13.00;75.80;;;;;;5017249;28;20022;-47
2022/10/20 12:19:34;;;;;;;9.98;7.60;;;12.90;75.90;;;;;;5000284;28;20088;-46
2022/10/20 12:22:21;;;;;;;14.60;7.32;;;13.00;76.20;;;;;;5031598;28;20026;-50
2022/10/20 12:24:56;;;;;;;8.80;6.90;;;13.00;76.00;;;;;;5019118;28;20034;-46
2022/10/20 12:27:28;;;;;;;8.88;6.60;;;13.00;75.70;;;;;;5012711;28;20037;-50
2022/10/20 12:29:58;;;;;;;7.85;6.93;;;13.10;75.80;;;;;;4977283;28;20061;-47
2022/10/20 12:32:36;;;;;;;;;;;13.10;76.60;;;;;;5008751;28;20030;-46
2022/10/20 12:35:11;;;;;;;9.30;7.55;;;13.10;76.20;;;;;;5030885;28;19920;-50
2022/10/20 12:37:38;;;;;;;8.77;7.45;;;13.20;76.20;;;;;;5007835;28;20034;-47
2022/10/20 12:40:10;;;;;;;9.98;7.43;;;13.20;76.30;;;;;;5020476;28;20045;-46
2022/10/20 12:42:55;;;;;;;14.57;6.90;;;13.30;76.60;;;;;;5032620;28;20101;-46
2022/10/20 12:45:40;;;;;;;9.70;6.57;;;13.20;76.20;;;;;;5014383;28;20034;-48
2022/10/20 12:48:08;;;;;;;10.82;7.47;;;13.30;75.80;;;;;;5027897;28;20046;-50
2022/10/20 12:51:02;;;;;;;8.95;6.95;;;13.30;76.50;;;;;;5027559;28;20029;-47
2022/10/20 12:53:30;;;;;;;8.68;6.88;;;13.30;75.20;;;;;;5014439;28;20033;-48
2022/10/20 12:56:06;;;;;;;10.52;7.78;;;13.20;75.10;;;;;;5001546;28;20053;-47
2022/10/20 12:58:38;;;;;;;10.50;8.02;;;13.20;74.90;;;;;;5007556;28;20142;-46
2022/10/20 13:01:11;;;;;;;10.10;6.80;;;13.20;74.60;;;;;;5012683;28;20034;-46
2022/10/20 13:03:55;;;;;;;9.85;7.55;;;13.20;74.80;;;;;;5004905;28;20070;-50
2022/10/20 13:06:29;;;;;;;11.85;7.20;;;13.30;75.30;;;;;;5036109;28;20029;-50
2022/10/20 13:09:20;;;;;;;8.90;6.82;;;13.30;75.20;;;;;;5027452;28;20087;-48
2022/10/20 13:12:27;;;;;;;11.98;7.35;;;13.40;75.20;;;;;;5024605;28;20064;-47
2022/10/20 13:15:01;;;;;;;9.07;7.72;;;13.40;74.80;;;;;;5003025;28;20438;-46
2022/10/20 13:17:54;;;;;;;11.88;7.50;;;13.40;75.00;;;;;;5012254;28;20344;-45
2022/10/20 13:20:35;;;;;;;9.10;7.75;;;13.40;74.40;;;;;;5028828;28;20510;-46
2022/10/20 13:23:08;;;;;;;10.80;7.75;;;13.40;74.80;;;;;;5035843;28;20030;-45
2022/10/20 13:25:57;;;;;;;9.90;7.22;;;13.40;74.50;;;;;;5031817;28;20034;-47
2022/10/20 13:28:30;;;;;;;10.25;7.15;;;13.30;75.00;;;;;;5035644;28;20025;-47
2022/10/20 13:31:17;;;;;;;9.63;6.88;;;13.30;75.30;;;;;;5034737;28;20044;-50